| time (UTC) | temp F | wind direction | speed MPH | gust MPH | rain 1hr in | rain 24hr in | rain mn in | humidity % | barometer mb |
| 20260510094831 | 37 | 330 | 0.0 | 0.0 | 0.00 | 0.67 | 0.00 | 83 | 1012.5 |
| 20260510094547 | 37 | 331 | 0.0 | 0.0 | 0.00 | 0.13 | 0.00 | 83 | 1012.7 |
| 20260510094329 | 37 | 331 | 0.0 | 0.0 | 0.00 | 0.67 | 0.00 | 83 | 1012.3 |
| 20260510093846 | 37 | 308 | 0.0 | 0.0 | 0.00 | 0.67 | 0.00 | 84 | 1012.2 |
| 20260510093342 | 37 | 308 | 0.0 | 0.0 | 0.00 | 0.67 | 0.00 | 84 | 1012.3 |
| 20260510093007 | 37 | 305 | 0.0 | 0.0 | 0.00 | 0.13 | 0.00 | 84 | 1012.3 |
| 20260510092839 | 37 | 354 | 0.0 | 0.0 | 0.00 | 0.67 | 0.00 | 84 | 1012.1 |
| 20260510092404 | 38 | 350 | 0.0 | 0.0 | 0.00 | 0.67 | 0.00 | 84 | 1012.0 |
| 20260510091858 | 38 | 350 | 0.0 | 0.0 | 0.00 | 0.67 | 0.00 | 84 | 1012.0 |
| 20260510091558 | 38 | 350 | 0.0 | 0.0 | 0.00 | 0.13 | 0.00 | 83 | 1012.2 |
| 20260510091403 | 38 | 350 | 0.0 | 0.0 | 0.00 | 0.67 | 0.00 | 83 | 1011.9 |
| 20260510090839 | 38 | 350 | 0.0 | 0.0 | 0.00 | 0.67 | 0.00 | 83 | 1011.7 |
| 20260510090338 | 39 | 350 | 0.0 | 0.0 | 0.00 | 0.67 | 0.00 | 83 | 1011.5 |
| 20260510090117 | 38 | 350 | 0.0 | 0.0 | 0.00 | 0.13 | 0.00 | 82 | 1011.6 |
| 20260510085835 | 39 | 350 | 0.0 | 0.0 | 0.00 | 0.67 | 0.00 | 82 | 1011.3 |
| 20260510085333 | 39 | 350 | 0.0 | 0.0 | 0.00 | 0.67 | 0.00 | 82 | 1011.2 |
| 20260510084829 | 39 | 359 | 0.0 | 0.0 | 0.00 | 0.67 | 0.00 | 82 | 1011.2 |
| 20260510084534 | 39 | 359 | 0.0 | 0.0 | 0.00 | 0.13 | 0.00 | 82 | 1011.3 |
| 20260510084342 | 39 | 354 | 0.0 | 0.0 | 0.00 | 0.67 | 0.00 | 82 | 1011.0 |
| 20260510083839 | 39 | 354 | 0.0 | 0.0 | 0.00 | 0.67 | 0.00 | 82 | 1011.0 |
| 20260510083403 | 39 | 347 | 0.0 | 0.0 | 0.00 | 0.67 | 0.00 | 81 | 1010.9 |
| 20260510083046 | 39 | 341 | 0.0 | 0.0 | 0.00 | 0.13 | 0.00 | 82 | 1011.1 |
| 20260510082840 | 39 | 328 | 0.0 | 0.0 | 0.00 | 0.67 | 0.00 | 82 | 1010.9 |
| 20260510082338 | 40 | 347 | 0.0 | 0.0 | 0.00 | 0.67 | 0.00 | 81 | 1010.8 |
| 20260510081836 | 40 | 347 | 0.0 | 0.0 | 0.00 | 0.67 | 0.00 | 82 | 1010.9 |
| 20260510081611 | 39 | 359 | 0.0 | 0.0 | 0.00 | 0.13 | 0.00 | 81 | 1011.0 |
| 20260510081403 | 40 | 4 | 0.0 | 0.0 | 0.00 | 0.67 | 0.00 | 82 | 1010.8 |
| 20260510080858 | 40 | 8 | 0.0 | 0.0 | 0.00 | 0.67 | 0.00 | 82 | 1010.8 |
| 20260510080335 | 40 | 18 | 0.0 | 0.0 | 0.00 | 0.67 | 0.00 | 82 | 1010.8 |
| 20260510080054 | 39 | 18 | 0.0 | 0.0 | 0.00 | 0.13 | 0.00 | 82 | 1010.9 |
| 20260510075828 | 40 | 18 | 0.0 | 0.0 | 0.00 | 0.67 | 0.00 | 82 | 1010.8 |
| 20260510075327 | 40 | 18 | 0.0 | 0.0 | 0.00 | 0.67 | 0.00 | 82 | 1010.6 |
| 20260510074844 | 40 | 18 | 0.0 | 0.0 | 0.00 | 0.67 | 0.00 | 82 | 1010.8 |
| 20260510074511 | 40 | 18 | 0.0 | 0.0 | 0.00 | 0.13 | 0.00 | 81 | 1010.7 |
| 20260510074341 | 40 | 18 | 0.0 | 0.0 | 0.00 | 0.67 | 0.00 | 81 | 1010.5 |
| 20260510073839 | 41 | 19 | 0.0 | 0.0 | 0.00 | 0.67 | 0.00 | 81 | 1010.5 |
| 20260510073336 | 41 | 20 | 0.0 | 0.0 | 0.00 | 0.67 | 0.00 | 81 | 1010.5 |
| 20260510073047 | 40 | 20 | 0.0 | 0.0 | 0.00 | 0.13 | 0.00 | 81 | 1010.6 |
| 20260510072834 | 41 | 20 | 0.0 | 0.0 | 0.00 | 0.67 | 0.00 | 81 | 1010.5 |
| 20260510072330 | 41 | 20 | 0.0 | 0.0 | 0.00 | 0.67 | 0.00 | 81 | 1010.6 |
| 20260510071846 | 41 | 21 | 0.0 | 0.0 | 0.00 | 0.67 | 0.00 | 81 | 1010.6 |
| 20260510071506 | 41 | 4 | 0.0 | 0.0 | 0.00 | 0.13 | 0.00 | 81 | 1010.7 |
| 20260510071343 | 42 | 4 | 0.0 | 0.0 | 0.00 | 0.67 | 0.00 | 80 | 1010.6 |
| 20260510070835 | 42 | 33 | 0.0 | 0.0 | 0.00 | 0.67 | 0.00 | 80 | 1010.6 |
| 20260510070333 | 42 | 34 | 0.0 | 0.0 | 0.00 | 0.67 | 0.00 | 80 | 1010.5 |
| 20260510070006 | 42 | 349 | 0.0 | 0.0 | 0.00 | 0.17 | 0.00 | 79 | 1010.6 |
| 20260510065831 | 42 | 349 | 0.0 | 0.0 | 0.00 | 0.87 | 0.00 | 79 | 1010.4 |
| 20260510065349 | 42 | 354 | 0.0 | 0.0 | 0.00 | 0.87 | 0.00 | 79 | 1010.2 |
| 20260510064846 | 43 | 16 | 0.0 | 0.0 | 0.00 | 0.87 | 0.00 | 78 | 1010.3 |
| 20260510064543 | 42 | 4 | 0.0 | 0.0 | 0.00 | 0.17 | 0.00 | 78 | 1010.4 |
| 20260510064343 | 43 | 8 | 0.0 | 0.0 | 0.00 | 0.87 | 0.00 | 78 | 1010.4 |
| 20260510063908 | 43 | 16 | 0.0 | 0.0 | 0.00 | 0.87 | 0.00 | 78 | 1010.4 |
| 20260510063346 | 43 | 16 | 0.0 | 0.0 | 0.00 | 0.87 | 0.00 | 78 | 1010.3 |
| 20260510063044 | 43 | 25 | 0.0 | 0.0 | 0.00 | 0.17 | 0.00 | 78 | 1010.3 |
| 20260510062843 | 43 | 347 | 0.0 | 0.0 | 0.00 | 0.87 | 0.00 | 78 | 1010.3 |
| 20260510062409 | 43 | 332 | 0.0 | 0.0 | 0.00 | 0.87 | 0.00 | 79 | 1010.3 |
| 20260510061841 | 43 | 335 | 0.0 | 0.0 | 0.00 | 0.87 | 0.00 | 79 | 1010.4 |
| 20260510061558 | 43 | 31 | 0.0 | 0.0 | 0.00 | 0.17 | 0.00 | 79 | 1010.3 |
| 20260510061340 | 43 | 350 | 0.0 | 0.0 | 0.00 | 0.87 | 0.00 | 80 | 1010.2 |
| 20260510060858 | 43 | 354 | 0.0 | 0.0 | 0.00 | 0.87 | 0.00 | 80 | 1010.2 |
| 20260510060336 | 43 | 354 | 0.0 | 0.0 | 0.00 | 0.87 | 0.00 | 81 | 1010.1 |
| 20260510055854 | 43 | 342 | 0.0 | 0.0 | 0.00 | 0.87 | 0.00 | 81 | 1010.1 |
| 20260510055331 | 43 | 359 | 0.0 | 0.0 | 0.00 | 0.87 | 0.00 | 82 | 1010.0 |
| 20260510054847 | 43 | 359 | 0.0 | 0.0 | 0.00 | 0.87 | 0.00 | 82 | 1009.7 |
| 20260510054600 | 43 | 34 | 0.0 | 0.0 | 0.00 | 0.17 | 0.00 | 82 | 1009.9 |
| 20260510054345 | 44 | 34 | 0.0 | 0.0 | 0.00 | 0.87 | 0.00 | 82 | 1009.7 |
| 20260510053842 | 44 | 34 | 0.0 | 0.0 | 0.00 | 0.87 | 0.00 | 82 | 1009.7 |
| 20260510053338 | 44 | 37 | 0.0 | 0.0 | 0.00 | 0.87 | 0.00 | 81 | 1009.6 |
| 20260510053016 | 43 | 37 | 0.0 | 0.0 | 0.00 | 0.17 | 0.00 | 81 | 1009.7 |
| 20260510052831 | 44 | 37 | 0.0 | 0.0 | 0.00 | 0.87 | 0.00 | 81 | 1009.6 |
| 20260510052348 | 44 | 37 | 0.0 | 0.0 | 0.00 | 0.87 | 0.00 | 81 | 1009.6 |
| 20260510051844 | 44 | 37 | 0.0 | 0.0 | 0.00 | 0.87 | 0.00 | 80 | 1009.5 |
| 20260510051551 | 44 | 37 | 0.0 | 0.0 | 0.00 | 0.17 | 0.00 | 80 | 1009.6 |
| 20260510051340 | 44 | 38 | 0.0 | 0.0 | 0.00 | 0.87 | 0.00 | 80 | 1009.5 |
| 20260510050838 | 44 | 73 | 0.0 | 0.0 | 0.00 | 0.87 | 0.00 | 79 | 1009.4 |
| 20260510050335 | 45 | 73 | 0.0 | 0.0 | 0.00 | 0.87 | 0.00 | 79 | 1009.4 |
| 20260510050006 | 44 | 73 | 0.0 | 0.0 | 0.00 | 0.17 | 0.00 | 78 | 1009.4 |
| 20260510045830 | 45 | 73 | 0.0 | 0.0 | 0.00 | 0.87 | 0.00 | 78 | 1009.3 |
| 20260510045347 | 45 | 73 | 0.0 | 0.0 | 0.00 | 0.87 | 0.00 | 78 | 1009.3 |
| 20260510044845 | 46 | 73 | 0.0 | 0.0 | 0.00 | 0.87 | 0.00 | 78 | 1009.2 |
| 20260510044551 | 45 | 73 | 0.0 | 0.0 | 0.00 | 0.17 | 0.00 | 78 | 1009.1 |
| 20260510044343 | 46 | 73 | 0.0 | 0.0 | 0.00 | 0.87 | 0.00 | 78 | 1009.1 |
| 20260510043840 | 46 | 73 | 0.0 | 0.0 | 0.00 | 0.87 | 0.00 | 77 | 1009.0 |
| 20260510043334 | 46 | 73 | 0.0 | 0.0 | 0.00 | 0.87 | 0.00 | 77 | 1008.7 |
| 20260510043058 | 46 | 75 | 0.0 | 0.0 | 0.00 | 0.17 | 0.00 | 76 | 1008.7 |
| 20260510042830 | 46 | 51 | 0.0 | 0.0 | 0.00 | 0.87 | 0.00 | 76 | 1008.7 |
| 20260510042347 | 46 | 59 | 0.0 | 0.0 | 0.00 | 0.87 | 0.00 | 77 | 1008.8 |
| 20260510041845 | 46 | 62 | 0.0 | 0.0 | 0.00 | 0.87 | 0.00 | 76 | 1008.6 |
| 20260510041529 | 46 | 42 | 0.0 | 0.0 | 0.00 | 0.17 | 0.00 | 76 | 1008.6 |
| 20260510041340 | 47 | 37 | 0.0 | 0.0 | 0.00 | 0.87 | 0.00 | 76 | 1008.6 |
| 20260510040837 | 47 | 359 | 0.0 | 0.0 | 0.00 | 0.87 | 0.00 | 75 | 1008.5 |
| 20260510040335 | 47 | 81 | 0.0 | 0.0 | 0.00 | 0.87 | 0.00 | 75 | 1008.4 |
| 20260510040053 | 47 | 45 | 0.0 | 0.0 | 0.00 | 0.17 | 0.00 | 75 | 1008.5 |
| 20260510035831 | 47 | 32 | 0.0 | 0.0 | 0.00 | 0.87 | 0.17 | 75 | 1008.6 |
| 20260510035348 | 47 | 26 | 0.0 | 0.0 | 0.00 | 0.87 | 0.17 | 75 | 1008.5 |
| 20260510034845 | 47 | 60 | 0.0 | 0.0 | 0.00 | 0.87 | 0.17 | 75 | 1008.1 |
| 20260510034525 | 47 | 62 | 0.0 | 0.0 | 0.00 | 0.17 | 0.17 | 75 | 1008.2 |
| 20260510034407 | 48 | 41 | 0.0 | 0.0 | 0.00 | 0.87 | 0.17 | 75 | 1008.3 |
| 20260510033843 | 48 | 345 | 0.0 | 0.0 | 0.00 | 0.87 | 0.17 | 74 | 1008.8 |
| 20260510033340 | 48 | 16 | 0.0 | 0.0 | 0.00 | 0.87 | 0.17 | 74 | 1008.2 |
| 20260510033029 | 48 | 64 | 0.0 | 0.0 | 0.00 | 0.17 | 0.17 | 74 | 1007.9 |
| 20260510032837 | 48 | 70 | 0.0 | 0.0 | 0.00 | 0.87 | 0.17 | 73 | 1007.8 |
| 20260510032402 | 49 | 62 | 0.0 | 0.0 | 0.00 | 0.87 | 0.17 | 73 | 1007.8 |
| 20260510031839 | 49 | 64 | 0.0 | 0.0 | 0.00 | 0.87 | 0.17 | 74 | 1007.7 |
| 20260510031539 | 49 | 60 | 0.0 | 0.0 | 0.00 | 0.17 | 0.17 | 74 | 1007.5 |
| 20260510031336 | 49 | 308 | 0.0 | 0.0 | 0.00 | 0.87 | 0.17 | 75 | 1007.6 |
| 20260510030834 | 50 | 34 | 0.0 | 0.0 | 0.00 | 0.87 | 0.17 | 76 | 1007.7 |
| 20260510030331 | 50 | 359 | 0.0 | 0.0 | 0.00 | 0.87 | 0.17 | 80 | 1007.8 |
| 20260510030006 | 50 | 41 | 0.0 | 0.0 | 0.00 | 0.17 | 0.17 | 81 | 1007.6 |
| 20260510025847 | 50 | 53 | 0.0 | 0.0 | 0.00 | 0.87 | 0.17 | 82 | 1007.5 |
| 20260510025344 | 50 | 32 | 0.0 | 0.0 | 0.00 | 0.87 | 0.17 | 82 | 1007.4 |
| 20260510024836 | 51 | 63 | 0.0 | 0.0 | 0.00 | 0.87 | 0.17 | 82 | 1007.3 |
| 20260510024538 | 50 | 297 | 0.0 | 0.0 | 0.00 | 0.17 | 0.17 | 82 | 1007.2 |
| 20260510024333 | 51 | 50 | 0.0 | 0.0 | 0.00 | 0.87 | 0.17 | 82 | 1007.1 |
| 20260510023849 | 51 | 21 | 0.0 | 0.0 | 0.00 | 0.87 | 0.17 | 82 | 1007.0 |
| 20260510023344 | 51 | 9 | 0.0 | 0.0 | 0.00 | 0.87 | 0.17 | 82 | 1006.9 |
| 20260510023104 | 51 | 4 | 0.0 | 0.0 | 0.00 | 0.17 | 0.17 | 82 | 1006.8 |
| 20260510022840 | 51 | 50 | 0.0 | 0.0 | 0.00 | 0.87 | 0.17 | 82 | 1006.8 |
| 20260510022337 | 52 | 4 | 0.0 | 0.0 | 0.00 | 0.87 | 0.17 | 83 | 1006.6 |
| 20260510021833 | 52 | 8 | 0.0 | 0.0 | 0.00 | 0.87 | 0.17 | 84 | 1006.8 |
| 20260510021515 | 51 | 345 | 0.0 | 0.0 | 0.00 | 0.17 | 0.17 | 85 | 1006.6 |
| 20260510021331 | 52 | 354 | 0.0 | 0.0 | 0.00 | 0.87 | 0.17 | 87 | 1006.6 |
| 20260510020848 | 52 | 265 | 0.0 | 0.0 | 0.00 | 0.87 | 0.17 | 89 | 1006.3 |
| 20260510020403 | 52 | 16 | 0.0 | 0.0 | 0.00 | 0.87 | 0.17 | 90 | 1006.4 |
| 20260510020029 | 51 | 354 | 0.0 | 0.0 | 0.00 | 0.17 | 0.17 | 91 | 1006.3 |
| 20260510015835 | 52 | 354 | 0.0 | 0.0 | 0.00 | 0.87 | 0.17 | 91 | 1006.4 |
| 20260510015331 | 52 | 321 | 0.0 | 0.0 | 0.00 | 0.87 | 0.17 | 93 | 1006.2 |
| 20260510014847 | 52 | 359 | 0.0 | 0.0 | 0.00 | 0.87 | 0.17 | 93 | 1006.2 |
| 20260510014553 | 51 | 359 | 0.0 | 0.0 | 0.00 | 0.17 | 0.17 | 93 | 1006.1 |
| 20260510014345 | 52 | 320 | 0.0 | 0.0 | 0.00 | 0.87 | 0.17 | 93 | 1006.1 |
| 20260510013839 | 52 | 291 | 0.0 | 0.0 | 0.00 | 0.87 | 0.17 | 93 | 1006.2 |
| 20260510013335 | 52 | 289 | 0.0 | 0.0 | 0.00 | 0.87 | 0.17 | 93 | 1005.9 |
| 20260510013014 | 51 | 289 | 0.0 | 0.0 | 0.00 | 0.17 | 0.17 | 93 | 1006.0 |
| 20260510012831 | 52 | 354 | 0.0 | 0.0 | 0.00 | 0.87 | 0.17 | 93 | 1005.9 |
| 20260510012348 | 52 | 15 | 0.0 | 0.0 | 0.00 | 0.87 | 0.17 | 93 | 1005.9 |
| 20260510011845 | 52 | 15 | 0.0 | 0.0 | 0.00 | 0.87 | 0.17 | 93 | 1005.7 |
| 20260510011555 | 52 | 15 | 0.0 | 0.0 | 0.00 | 0.17 | 0.17 | 92 | 1005.8 |
| 20260510011342 | 52 | 15 | 0.0 | 0.0 | 0.00 | 0.87 | 0.17 | 92 | 1005.7 |
| 20260510010839 | 52 | 15 | 0.0 | 0.0 | 0.00 | 0.87 | 0.17 | 92 | 1005.4 |
| 20260510010330 | 52 | 15 | 0.0 | 0.0 | 0.00 | 0.87 | 0.17 | 92 | 1005.4 |
| 20260510010014 | 52 | 15 | 0.0 | 0.0 | 0.00 | 0.17 | 0.17 | 91 | 1005.3 |
| 20260510005846 | 53 | 15 | 0.0 | 0.0 | 0.00 | 0.87 | 0.17 | 91 | 1005.3 |
| 20260510005345 | 53 | 15 | 0.0 | 0.0 | 0.00 | 0.87 | 0.17 | 91 | 1005.0 |
| 20260510004842 | 53 | 15 | 0.0 | 0.0 | 0.00 | 0.87 | 0.17 | 91 | 1005.0 |
| 20260510004547 | 53 | 15 | 0.0 | 0.0 | 0.00 | 0.17 | 0.17 | 91 | 1004.9 |
| 20260510004336 | 53 | 15 | 0.0 | 0.0 | 0.00 | 0.87 | 0.17 | 91 | 1005.0 |
| 20260510003856 | 53 | 15 | 0.0 | 0.0 | 0.00 | 0.87 | 0.17 | 91 | 1004.8 |
| 20260510003331 | 53 | 252 | 0.0 | 0.0 | 0.00 | 0.87 | 0.17 | 91 | 1004.8 |
| 20260510003048 | 53 | 251 | 0.0 | 0.0 | 0.00 | 0.17 | 0.17 | 91 | 1004.7 |
| 20260510002831 | 54 | 251 | 0.0 | 0.0 | 0.00 | 0.87 | 0.17 | 91 | 1004.7 |
| 20260510002347 | 54 | 251 | 0.0 | 0.0 | 0.00 | 0.87 | 0.17 | 91 | 1004.4 |
| 20260510001843 | 54 | 251 | 0.0 | 0.0 | 0.00 | 0.87 | 0.17 | 91 | 1004.3 |
| 20260510001507 | 53 | 252 | 0.0 | 0.0 | 0.00 | 0.17 | 0.17 | 91 | 1004.4 |
| 20260510001335 | 54 | 251 | 0.0 | 0.0 | 0.00 | 0.87 | 0.17 | 90 | 1004.4 |
| 20260510000830 | 54 | 251 | 0.0 | 0.0 | 0.00 | 0.87 | 0.17 | 90 | 1004.2 |
| 20260510000348 | 54 | 251 | 0.0 | 0.0 | 0.00 | 0.87 | 0.17 | 90 | 1004.2 |
| 20260510000043 | 54 | 251 | 0.0 | 0.0 | 0.00 | 0.17 | 0.17 | 90 | 1004.1 |
| 20260509235844 | 55 | 251 | 0.0 | 0.0 | 0.00 | 0.87 | 0.17 | 90 | 1004.2 |
| 20260509235341 | 55 | 251 | 0.0 | 0.0 | 0.00 | 0.87 | 0.17 | 90 | 1004.1 |
| 20260509234836 | 55 | 251 | 0.0 | 0.0 | 0.00 | 0.87 | 0.17 | 90 | 1004.1 |
| 20260509234637 | 55 | 251 | 0.0 | 0.0 | 0.00 | 0.17 | 0.17 | 90 | 1004.0 |
| 20260509234333 | 55 | 251 | 0.0 | 0.0 | 0.00 | 0.87 | 0.17 | 90 | 1004.1 |
| 20260509233830 | 55 | 251 | 0.0 | 0.0 | 0.00 | 0.87 | 0.17 | 91 | 1004.1 |
| 20260509233347 | 55 | 252 | 0.0 | 0.0 | 0.00 | 0.87 | 0.17 | 91 | 1004.0 |
| 20260509233026 | 55 | 251 | 0.0 | 0.0 | 0.00 | 0.17 | 0.17 | 90 | 1003.9 |
| 20260509232843 | 55 | 251 | 0.0 | 0.0 | 0.00 | 0.87 | 0.17 | 90 | 1003.9 |
| 20260509232403 | 55 | 252 | 0.0 | 0.0 | 0.00 | 0.87 | 0.17 | 90 | 1003.9 |
| 20260509231846 | 55 | 251 | 0.0 | 0.0 | 0.00 | 0.87 | 0.17 | 90 | 1003.8 |
| 20260509231505 | 54 | 252 | 0.0 | 0.0 | 0.00 | 0.17 | 0.17 | 90 | 1003.6 |
| 20260509231342 | 55 | 251 | 0.0 | 0.0 | 0.00 | 0.87 | 0.17 | 90 | 1003.7 |
| 20260509230838 | 55 | 251 | 0.0 | 0.0 | 0.00 | 0.87 | 0.17 | 90 | 1003.6 |
| 20260509230334 | 55 | 251 | 0.0 | 0.0 | 0.00 | 0.87 | 0.17 | 91 | 1003.4 |
| 20260509230042 | 55 | 251 | 0.0 | 0.0 | 0.00 | 0.17 | 0.17 | 91 | 1003.3 |
| 20260509225851 | 55 | 251 | 0.0 | 0.0 | 0.00 | 0.87 | 0.17 | 93 | 1003.3 |
| 20260509225346 | 55 | 251 | 0.0 | 0.0 | 0.00 | 0.87 | 0.17 | 93 | 1003.3 |
| 20260509224908 | 54 | 251 | 0.0 | 0.0 | 0.00 | 0.87 | 0.17 | 93 | 1003.3 |
| 20260509224535 | 53 | 251 | 0.0 | 0.0 | 0.00 | 0.17 | 0.17 | 94 | 1003.2 |
| 20260509224344 | 54 | 250 | 0.0 | 0.0 | 0.00 | 0.87 | 0.17 | 94 | 1003.1 |
| 20260509223905 | 54 | 251 | 0.0 | 0.0 | 0.00 | 0.87 | 0.17 | 94 | 1002.9 |
| 20260509223409 | 53 | 252 | 0.0 | 0.0 | 0.00 | 0.87 | 0.17 | 95 | 1002.8 |
| 20260509223008 | 53 | 249 | 0.0 | 0.0 | 0.00 | 0.17 | 0.17 | 95 | 1002.7 |
| 20260509222846 | 53 | 246 | 0.0 | 0.0 | 0.00 | 0.87 | 0.17 | 95 | 1002.7 |
| 20260509222343 | 53 | 247 | 0.0 | 0.0 | 0.00 | 0.87 | 0.17 | 95 | 1002.7 |
| 20260509221839 | 52 | 247 | 0.0 | 0.0 | 0.00 | 0.87 | 0.17 | 95 | 1002.6 |
| 20260509221546 | 52 | 247 | 0.0 | 0.0 | 0.00 | 0.17 | 0.17 | 95 | 1002.7 |
| 20260509221337 | 52 | 243 | 0.0 | 0.0 | 0.00 | 0.87 | 0.17 | 95 | 1002.7 |
| 20260509220852 | 52 | 255 | 0.0 | 0.0 | 0.00 | 0.87 | 0.17 | 95 | 1002.9 |
| 20260509220348 | 51 | 255 | 0.0 | 0.0 | 0.00 | 0.87 | 0.17 | 95 | 1003.0 |
| 20260509220044 | 50 | 256 | 0.0 | 0.0 | 0.01 | 0.17 | 0.17 | 95 | 1003.0 |
| 20260509215845 | 51 | 247 | 0.0 | 0.0 | 0.04 | 0.87 | 0.17 | 95 | 1003.1 |
| 20260509215338 | 50 | 249 | 0.0 | 0.0 | 0.08 | 0.87 | 0.17 | 94 | 1003.0 |
| 20260509214836 | 50 | 243 | 0.0 | 0.0 | 0.28 | 0.87 | 0.17 | 94 | 1003.2 |
| 20260509214519 | 49 | 233 | 0.0 | 0.0 | 0.09 | 0.17 | 0.17 | 94 | 1003.2 |
| 20260509214332 | 50 | 177 | 0.0 | 0.0 | 0.59 | 0.87 | 0.17 | 94 | 1003.1 |
| 20260509213848 | 50 | 254 | 0.0 | 0.0 | 0.63 | 0.87 | 0.17 | 93 | 1003.2 |
| 20260509213345 | 50 | 266 | 0.0 | 0.0 | 0.63 | 0.87 | 0.17 | 93 | 1003.2 |
| 20260509213050 | 49 | 266 | 0.0 | 0.0 | 0.13 | 0.17 | 0.17 | 93 | 1003.3 |
| 20260509212843 | 50 | 250 | 0.0 | 0.0 | 0.63 | 0.87 | 0.17 | 92 | 1003.2 |
| 20260509212340 | 50 | 249 | 0.0 | 0.0 | 0.63 | 0.87 | 0.17 | 92 | 1003.4 |
| 20260509211856 | 50 | 246 | 0.0 | 0.0 | 0.63 | 0.87 | 0.17 | 92 | 1003.4 |
| 20260509211554 | 50 | 252 | 0.0 | 0.0 | 0.13 | 0.17 | 0.17 | 91 | 1003.4 |
| 20260509211333 | 50 | 253 | 0.0 | 0.0 | 0.63 | 0.87 | 0.17 | 91 | 1003.4 |
| 20260509210830 | 51 | 243 | 0.0 | 0.0 | 0.63 | 0.87 | 0.17 | 90 | 1003.9 |
| 20260509210342 | 51 | 250 | 0.0 | 0.0 | 0.63 | 0.87 | 0.17 | 90 | 1003.8 |
| 20260509210008 | 52 | 264 | 0.0 | 0.0 | 0.12 | 0.17 | 0.17 | 89 | 1003.3 |
| 20260509205841 | 52 | 264 | 0.0 | 0.0 | 0.59 | 0.83 | 0.17 | 88 | 1003.2 |
| 20260509205407 | 53 | 288 | 0.0 | 0.0 | 0.55 | 0.79 | 0.16 | 87 | 1003.7 |
| 20260509204843 | 55 | 310 | 0.0 | 0.0 | 0.35 | 0.59 | 0.12 | 87 | 1004.1 |
| 20260509204526 | 55 | 245 | 0.0 | 0.0 | 0.03 | 0.08 | 0.08 | 88 | 1003.9 |
| 20260509204340 | 56 | 258 | 0.0 | 0.0 | 0.04 | 0.28 | 0.06 | 87 | 1003.2 |
| 20260509203857 | 56 | 286 | 0.0 | 0.0 | 0.00 | 0.24 | 0.05 | 86 | 1003.0 |
| 20260509203330 | 57 | 256 | 0.0 | 0.0 | 0.00 | 0.24 | 0.05 | 85 | 1002.6 |
| 20260509203031 | 57 | 247 | 0.0 | 0.0 | 0.00 | 0.05 | 0.05 | 84 | 1002.3 |
| 20260509202848 | 57 | 244 | 0.0 | 0.0 | 0.00 | 0.24 | 0.05 | 84 | 1002.4 |
| 20260509202344 | 57 | 243 | 0.0 | 0.0 | 0.00 | 0.24 | 0.05 | 83 | 1002.4 |
| 20260509201839 | 57 | 224 | 0.0 | 0.0 | 0.00 | 0.24 | 0.05 | 83 | 1002.2 |
| 20260509201607 | 57 | 217 | 0.0 | 0.0 | 0.00 | 0.05 | 0.05 | 83 | 1002.1 |
| 20260509201401 | 57 | 229 | 0.0 | 0.0 | 0.00 | 0.24 | 0.05 | 83 | 1002.3 |
| 20260509200836 | 58 | 254 | 0.0 | 0.0 | 0.00 | 0.24 | 0.05 | 83 | 1002.3 |
| 20260509200332 | 58 | 256 | 0.0 | 0.0 | 0.00 | 0.24 | 0.05 | 82 | 1002.2 |
| 20260509200109 | 58 | 246 | 0.0 | 0.0 | 0.00 | 0.05 | 0.05 | 82 | 1002.2 |
| 20260509195829 | 58 | 260 | 0.0 | 0.0 | 0.00 | 0.24 | 0.05 | 82 | 1002.4 |
| 20260509195346 | 59 | 220 | 0.0 | 0.0 | 0.00 | 0.24 | 0.05 | 82 | 1002.4 |
| 20260509194841 | 59 | 212 | 0.0 | 0.0 | 0.00 | 0.24 | 0.05 | 81 | 1002.5 |
| 20260509194534 | 58 | 213 | 0.0 | 0.0 | 0.00 | 0.05 | 0.05 | 81 | 1002.5 |
| 20260509194339 | 59 | 225 | 0.0 | 0.0 | 0.00 | 0.24 | 0.05 | 81 | 1002.5 |
| 20260509193835 | 59 | 247 | 0.0 | 0.0 | 0.00 | 0.24 | 0.05 | 81 | 1002.7 |
| 20260509193352 | 59 | 226 | 0.0 | 0.0 | 0.00 | 0.24 | 0.05 | 82 | 1002.4 |
| 20260509193037 | 59 | 256 | 0.0 | 0.0 | 0.00 | 0.05 | 0.05 | 82 | 1002.5 |
| 20260509192829 | 59 | 233 | 0.0 | 0.0 | 0.00 | 0.24 | 0.05 | 82 | 1002.7 |
| 20260509192409 | 59 | 216 | 0.0 | 0.0 | 0.00 | 0.24 | 0.05 | 82 | 1002.4 |
| 20260509191846 | 59 | 256 | 0.0 | 0.0 | 0.00 | 0.24 | 0.05 | 82 | 1002.6 |
| 20260509191555 | 59 | 158 | 0.0 | 0.0 | 0.00 | 0.05 | 0.05 | 82 | 1002.6 |
| 20260509191340 | 59 | 224 | 0.0 | 0.0 | 0.00 | 0.24 | 0.05 | 83 | 1002.8 |
| 20260509190906 | 58 | 231 | 0.0 | 0.0 | 0.00 | 0.24 | 0.05 | 84 | 1003.0 |
| 20260509190342 | 58 | 171 | 0.0 | 0.0 | 0.00 | 0.24 | 0.05 | 85 | 1003.0 |
| 20260509190054 | 57 | 219 | 0.0 | 0.0 | 0.00 | 0.05 | 0.05 | 85 | 1003.0 |
| 20260509185839 | 57 | 180 | 0.0 | 0.0 | 0.00 | 0.24 | 0.05 | 85 | 1003.2 |
| 20260509185336 | 57 | 290 | 0.0 | 0.0 | 0.00 | 0.24 | 0.05 | 85 | 1003.5 |
| 20260509184851 | 57 | 219 | 0.0 | 0.0 | 0.00 | 0.24 | 0.05 | 85 | 1003.5 |
| 20260509184558 | 56 | 120 | 0.0 | 0.0 | 0.00 | 0.05 | 0.05 | 85 | 1003.4 |
| 20260509184344 | 57 | 251 | 0.0 | 0.0 | 0.00 | 0.24 | 0.05 | 84 | 1003.7 |
| 20260509183841 | 57 | 235 | 0.0 | 0.0 | 0.00 | 0.24 | 0.05 | 83 | 1003.9 |
| 20260509183406 | 58 | 227 | 0.0 | 0.0 | 0.00 | 0.24 | 0.05 | 83 | 1004.0 |
| 20260509183002 | 58 | 222 | 0.0 | 0.0 | 0.00 | 0.05 | 0.05 | 83 | 1004.0 |
| 20260509182841 | 58 | 225 | 0.0 | 0.0 | 0.00 | 0.24 | 0.05 | 83 | 1003.8 |
| 20260509182358 | 59 | 258 | 0.0 | 0.0 | 0.00 | 0.24 | 0.05 | 83 | 1003.7 |
| 20260509181836 | 59 | 229 | 0.0 | 0.0 | 0.00 | 0.24 | 0.05 | 82 | 1003.8 |
| 20260509181519 | 59 | 241 | 0.0 | 0.0 | 0.00 | 0.05 | 0.05 | 82 | 1003.8 |
| 20260509181333 | 60 | 249 | 0.0 | 0.0 | 0.00 | 0.24 | 0.05 | 81 | 1003.7 |
| 20260509180830 | 60 | 249 | 0.0 | 0.0 | 0.00 | 0.24 | 0.05 | 81 | 1003.5 |
| 20260509180345 | 61 | 228 | 0.0 | 0.0 | 0.00 | 0.24 | 0.05 | 80 | 1003.4 |
| 20260509180042 | 60 | 172 | 0.0 | 0.0 | 0.00 | 0.05 | 0.05 | 81 | 1003.6 |
| 20260509175844 | 61 | 197 | 0.0 | 0.0 | 0.00 | 0.24 | 0.05 | 81 | 1003.5 |
| 20260509175337 | 61 | 170 | 0.0 | 0.0 | 0.00 | 0.24 | 0.05 | 81 | 1003.6 |
| 20260509174835 | 61 | 224 | 0.0 | 0.0 | 0.00 | 0.24 | 0.05 | 81 | 1003.7 |
| 20260509174518 | 60 | 147 | 0.0 | 0.0 | 0.00 | 0.05 | 0.05 | 80 | 1003.7 |
| 20260509174331 | 61 | 217 | 0.0 | 0.0 | 0.00 | 0.24 | 0.05 | 80 | 1003.6 |
| 20260509173829 | 61 | 237 | 0.0 | 0.0 | 0.00 | 0.24 | 0.05 | 79 | 1003.7 |
| 20260509173344 | 61 | 270 | 0.0 | 0.0 | 0.00 | 0.24 | 0.05 | 80 | 1003.8 |
| 20260509173036 | 60 | 247 | 0.0 | 0.0 | 0.00 | 0.05 | 0.05 | 79 | 1003.9 |
| 20260509172840 | 61 | 187 | 0.0 | 0.0 | 0.00 | 0.24 | 0.05 | 81 | 1004.1 |
| 20260509172335 | 61 | 235 | 0.0 | 0.0 | 0.00 | 0.24 | 0.05 | 79 | 1004.1 |
| 20260509171853 | 61 | 257 | 0.0 | 0.0 | 0.00 | 0.24 | 0.05 | 81 | 1004.2 |
| 20260509171533 | 60 | 220 | 0.0 | 0.0 | 0.00 | 0.05 | 0.05 | 82 | 1004.0 |
| 20260509171329 | 60 | 156 | 0.0 | 0.0 | 0.00 | 0.24 | 0.05 | 82 | 1004.1 |
| 20260509170845 | 60 | 234 | 0.0 | 0.0 | 0.00 | 0.24 | 0.05 | 81 | 1004.1 |
| 20260509170339 | 60 | 251 | 0.0 | 0.0 | 0.00 | 0.24 | 0.05 | 82 | 1004.4 |
| 20260509170058 | 59 | 197 | 0.0 | 0.0 | 0.00 | 0.05 | 0.05 | 81 | 1004.3 |
| 20260509165834 | 60 | 195 | 0.0 | 0.0 | 0.00 | 0.24 | 0.05 | 80 | 1004.4 |
| 20260509165330 | 60 | 189 | 0.0 | 0.0 | 0.00 | 0.24 | 0.05 | 81 | 1004.5 |
| 20260509164847 | 60 | 179 | 0.0 | 0.0 | 0.00 | 0.24 | 0.05 | 82 | 1004.6 |
| 20260509164509 | 59 | 214 | 0.0 | 0.0 | 0.00 | 0.05 | 0.05 | 81 | 1004.5 |
| 20260509164344 | 59 | 258 | 0.0 | 0.0 | 0.00 | 0.24 | 0.05 | 81 | 1004.6 |
| 20260509163843 | 59 | 149 | 0.0 | 0.0 | 0.00 | 0.24 | 0.05 | 81 | 1004.6 |
| 20260509163340 | 59 | 195 | 0.0 | 0.0 | 0.00 | 0.24 | 0.05 | 82 | 1004.5 |
| 20260509163041 | 58 | 160 | 0.0 | 0.0 | 0.00 | 0.05 | 0.05 | 82 | 1004.7 |
| 20260509162837 | 59 | 252 | 0.0 | 0.0 | 0.00 | 0.24 | 0.05 | 83 | 1005.0 |
| 20260509162334 | 58 | 230 | 0.0 | 0.0 | 0.00 | 0.24 | 0.05 | 82 | 1005.4 |
| 20260509161831 | 58 | 243 | 0.0 | 0.0 | 0.00 | 0.24 | 0.05 | 82 | 1005.4 |
| 20260509161503 | 58 | 256 | 0.0 | 0.0 | 0.00 | 0.05 | 0.05 | 83 | 1005.3 |
| 20260509161346 | 58 | 264 | 0.0 | 0.0 | 0.00 | 0.24 | 0.05 | 82 | 1005.3 |
| 20260509160856 | 58 | 208 | 0.0 | 0.0 | 0.00 | 0.24 | 0.05 | 82 | 1005.5 |
| 20260509160333 | 58 | 225 | 0.0 | 0.0 | 0.00 | 0.24 | 0.05 | 81 | 1005.6 |
| 20260509160019 | 58 | 285 | 0.0 | 0.0 | 0.00 | 0.05 | 0.05 | 81 | 1005.5 |
| 20260509155832 | 59 | 244 | 0.0 | 0.0 | 0.00 | 0.24 | 0.05 | 80 | 1005.4 |
| 20260509155329 | 59 | 245 | 0.0 | 0.0 | 0.00 | 0.24 | 0.05 | 81 | 1005.4 |
| 20260509154846 | 59 | 220 | 0.0 | 0.0 | 0.00 | 0.24 | 0.05 | 83 | 1005.3 |
| 20260509154542 | 58 | 230 | 0.0 | 0.0 | 0.00 | 0.05 | 0.05 | 83 | 1005.2 |
| 20260509154344 | 58 | 226 | 0.0 | 0.0 | 0.00 | 0.24 | 0.05 | 85 | 1005.2 |
| 20260509153840 | 57 | 195 | 0.0 | 0.0 | 0.00 | 0.24 | 0.05 | 85 | 1005.3 |
| 20260509153338 | 57 | 200 | 0.0 | 0.0 | 0.00 | 0.24 | 0.05 | 86 | 1005.4 |
| 20260509153105 | 56 | 200 | 0.0 | 0.0 | 0.00 | 0.05 | 0.05 | 86 | 1005.3 |
| 20260509152835 | 57 | 228 | 0.0 | 0.0 | 0.00 | 0.24 | 0.05 | 85 | 1005.4 |
| 20260509152331 | 57 | 225 | 0.0 | 0.0 | 0.00 | 0.24 | 0.05 | 85 | 1005.6 |
| 20260509151831 | 57 | 178 | 0.0 | 0.0 | 0.00 | 0.24 | 0.05 | 86 | 1005.6 |
| 20260509151536 | 56 | 210 | 0.0 | 0.0 | 0.00 | 0.05 | 0.05 | 86 | 1005.6 |
| 20260509151344 | 57 | 231 | 0.0 | 0.0 | 0.00 | 0.24 | 0.05 | 86 | 1005.6 |
| 20260509150908 | 57 | 169 | 0.0 | 0.0 | 0.00 | 0.24 | 0.05 | 87 | 1005.4 |
| 20260509150345 | 57 | 80 | 0.0 | 0.0 | 0.00 | 0.24 | 0.05 | 87 | 1005.4 |
| 20260509150043 | 56 | 80 | 0.0 | 0.0 | 0.00 | 0.05 | 0.05 | 87 | 1005.5 |
| 20260509145840 | 57 | 143 | 0.0 | 0.0 | 0.00 | 0.24 | 0.05 | 87 | 1005.5 |
| 20260509145338 | 57 | 213 | 0.0 | 0.0 | 0.00 | 0.24 | 0.05 | 87 | 1005.5 |
| 20260509144834 | 56 | 211 | 0.0 | 0.0 | 0.00 | 0.24 | 0.05 | 88 | 1005.6 |
| 20260509144501 | 56 | 239 | 0.0 | 0.0 | 0.00 | 0.05 | 0.05 | 88 | 1005.6 |
| 20260509144332 | 56 | 268 | 0.0 | 0.0 | 0.00 | 0.24 | 0.05 | 90 | 1005.6 |
| 20260509143830 | 55 | 206 | 0.0 | 0.0 | 0.00 | 0.24 | 0.05 | 92 | 1005.4 |
| 20260509143347 | 55 | 224 | 0.0 | 0.0 | 0.00 | 0.24 | 0.05 | 92 | 1005.5 |
| 20260509143034 | 54 | 256 | 0.0 | 0.0 | 0.00 | 0.05 | 0.05 | 92 | 1005.6 |
| 20260509142845 | 54 | 243 | 0.0 | 0.0 | 0.00 | 0.24 | 0.05 | 93 | 1005.6 |
| 20260509142340 | 54 | 247 | 0.0 | 0.0 | 0.00 | 0.24 | 0.05 | 93 | 1005.6 |
| 20260509141837 | 54 | 241 | 0.0 | 0.0 | 0.00 | 0.24 | 0.05 | 93 | 1005.6 |
| 20260509141551 | 53 | 240 | 0.0 | 0.0 | 0.00 | 0.05 | 0.05 | 93 | 1005.6 |
| 20260509141335 | 53 | 248 | 0.0 | 0.0 | 0.00 | 0.24 | 0.05 | 94 | 1005.6 |
| 20260509140834 | 53 | 235 | 0.0 | 0.0 | 0.00 | 0.24 | 0.05 | 95 | 1005.6 |
| 20260509140332 | 53 | 179 | 0.0 | 0.0 | 0.00 | 0.24 | 0.05 | 96 | 1005.5 |
| 20260509140011 | 53 | 151 | 0.0 | 0.0 | 0.00 | 0.05 | 0.05 | 96 | 1005.6 |
| 20260509135849 | 53 | 174 | 0.0 | 0.0 | 0.00 | 0.24 | 0.05 | 96 | 1005.5 |
| 20260509135344 | 53 | 191 | 0.0 | 0.0 | 0.00 | 0.24 | 0.05 | 96 | 1005.7 |
| 20260509134842 | 53 | 249 | 0.0 | 0.0 | 0.00 | 0.24 | 0.05 | 96 | 1005.6 |
| 20260509134526 | 52 | 241 | 0.0 | 0.0 | 0.00 | 0.05 | 0.05 | 96 | 1005.7 |
| 20260509134339 | 53 | 201 | 0.0 | 0.0 | 0.00 | 0.24 | 0.05 | 97 | 1005.6 |
| 20260509133836 | 52 | 182 | 0.0 | 0.0 | 0.00 | 0.24 | 0.05 | 96 | 1005.6 |
| 20260509133334 | 52 | 259 | 0.0 | 0.0 | 0.00 | 0.24 | 0.05 | 96 | 1005.7 |
| 20260509133051 | 52 | 231 | 0.0 | 0.0 | 0.00 | 0.05 | 0.05 | 97 | 1005.8 |
| 20260509132847 | 52 | 176 | 0.0 | 0.0 | 0.00 | 0.24 | 0.05 | 96 | 1005.6 |
| 20260509132344 | 52 | 214 | 0.0 | 0.0 | 0.00 | 0.24 | 0.05 | 96 | 1005.7 |
| 20260509131841 | 52 | 215 | 0.0 | 0.0 | 0.00 | 0.24 | 0.05 | 97 | 1005.8 |
| 20260509131522 | 51 | 194 | 0.0 | 0.0 | 0.00 | 0.05 | 0.05 | 96 | 1006.0 |
| 20260509131337 | 51 | 280 | 0.0 | 0.0 | 0.00 | 0.24 | 0.05 | 96 | 1005.9 |
| 20260509130903 | 51 | 174 | 0.0 | 0.0 | 0.00 | 0.24 | 0.05 | 96 | 1006.0 |
| 20260509130341 | 51 | 181 | 0.0 | 0.0 | 0.00 | 0.24 | 0.05 | 96 | 1005.9 |
| 20260509130049 | 51 | 262 | 0.0 | 0.0 | 0.00 | 0.05 | 0.05 | 96 | 1005.8 |
| 20260509125839 | 51 | 172 | 0.0 | 0.0 | 0.00 | 0.24 | 0.05 | 96 | 1005.8 |
| 20260509125333 | 51 | 172 | 0.0 | 0.0 | 0.00 | 0.24 | 0.05 | 96 | 1005.8 |
| 20260509124850 | 51 | 231 | 0.0 | 0.0 | 0.00 | 0.24 | 0.05 | 96 | 1005.9 |
| 20260509124538 | 50 | 141 | 0.0 | 0.0 | 0.00 | 0.05 | 0.05 | 96 | 1006.0 |
| 20260509124340 | 51 | 133 | 0.0 | 0.0 | 0.00 | 0.24 | 0.05 | 96 | 1005.9 |
| 20260509123837 | 50 | 249 | 0.0 | 0.0 | 0.00 | 0.24 | 0.05 | 96 | 1006.1 |
| 20260509123402 | 50 | 249 | 0.0 | 0.0 | 0.00 | 0.24 | 0.05 | 96 | 1006.2 |
| 20260509123039 | 50 | 249 | 0.0 | 0.0 | 0.00 | 0.05 | 0.05 | 96 | 1006.2 |
| 20260509122836 | 50 | 324 | 0.0 | 0.0 | 0.00 | 0.24 | 0.05 | 96 | 1006.2 |
| 20260509122352 | 50 | 164 | 0.0 | 0.0 | 0.00 | 0.24 | 0.05 | 96 | 1006.1 |
| 20260509121829 | 50 | 167 | 0.0 | 0.0 | 0.00 | 0.24 | 0.05 | 96 | 1006.1 |
| 20260509121547 | 50 | 163 | 0.0 | 0.0 | 0.00 | 0.05 | 0.05 | 96 | 1006.3 |
| 20260509121343 | 50 | 164 | 0.0 | 0.0 | 0.00 | 0.24 | 0.05 | 96 | 1006.1 |
| 20260509120840 | 50 | 162 | 0.0 | 0.0 | 0.00 | 0.24 | 0.05 | 96 | 1006.2 |
| 20260509120407 | 50 | 216 | 0.0 | 0.0 | 0.04 | 0.24 | 0.05 | 96 | 1006.3 |
| 20260509120059 | 49 | 219 | 0.0 | 0.0 | 0.01 | 0.05 | 0.05 | 96 | 1006.4 |
| 20260509115840 | 50 | 219 | 0.0 | 0.0 | 0.04 | 0.24 | 0.05 | 96 | 1006.3 |
| 20260509115356 | 50 | 193 | 0.0 | 0.0 | 0.04 | 0.24 | 0.05 | 96 | 1006.3 |
| 20260509114900 | 50 | 193 | 0.0 | 0.0 | 0.04 | 0.24 | 0.05 | 96 | 1006.2 |
| 20260509114544 | 49 | 193 | 0.0 | 0.0 | 0.01 | 0.05 | 0.05 | 96 | 1006.3 |
| 20260509114336 | 50 | 163 | 0.0 | 0.0 | 0.04 | 0.24 | 0.05 | 96 | 1006.2 |
| 20260509113834 | 50 | 162 | 0.0 | 0.0 | 0.04 | 0.24 | 0.05 | 96 | 1006.2 |
| 20260509113332 | 50 | 162 | 0.0 | 0.0 | 0.04 | 0.24 | 0.05 | 96 | 1006.2 |
| 20260509113114 | 49 | 162 | 0.0 | 0.0 | 0.01 | 0.05 | 0.05 | 96 | 1006.3 |
| 20260509112829 | 49 | 162 | 0.0 | 0.0 | 0.04 | 0.24 | 0.05 | 96 | 1006.2 |
| 20260509112347 | 49 | 162 | 0.0 | 0.0 | 0.04 | 0.24 | 0.05 | 96 | 1006.1 |
| 20260509111844 | 49 | 163 | 0.0 | 0.0 | 0.04 | 0.24 | 0.05 | 96 | 1006.1 |
| 20260509111533 | 49 | 165 | 0.0 | 0.0 | 0.01 | 0.05 | 0.05 | 96 | 1006.3 |
| 20260509111341 | 49 | 165 | 0.0 | 0.0 | 0.04 | 0.24 | 0.05 | 96 | 1006.2 |
| 20260509110836 | 49 | 177 | 0.0 | 0.0 | 0.04 | 0.24 | 0.05 | 96 | 1006.0 |
| 20260509110332 | 49 | 177 | 0.0 | 0.0 | 0.00 | 0.20 | 0.04 | 96 | 1006.1 |
| 20260509110057 | 48 | 177 | 0.0 | 0.0 | 0.00 | 0.05 | 0.04 | 95 | 1006.3 |
| 20260509105829 | 49 | 146 | 0.0 | 0.0 | 0.00 | 0.24 | 0.04 | 95 | 1006.1 |
| 20260509105347 | 49 | 147 | 0.0 | 0.0 | 0.00 | 0.24 | 0.04 | 95 | 1006.0 |
| 20260509104843 | 49 | 147 | 0.0 | 0.0 | 0.00 | 0.24 | 0.04 | 95 | 1006.1 |
| 20260509104527 | 48 | 147 | 0.0 | 0.0 | 0.00 | 0.05 | 0.04 | 95 | 1006.2 |
| 20260509104340 | 49 | 147 | 0.0 | 0.0 | 0.00 | 0.24 | 0.04 | 95 | 1006.0 |
| 20260509103837 | 49 | 147 | 0.0 | 0.0 | 0.00 | 0.24 | 0.04 | 95 | 1006.1 |
| 20260509103402 | 48 | 147 | 0.0 | 0.0 | 0.00 | 0.24 | 0.04 | 95 | 1006.1 |
| 20260509103018 | 48 | 147 | 0.0 | 0.0 | 0.00 | 0.05 | 0.04 | 95 | 1006.3 |
| 20260509102859 | 48 | 146 | 0.0 | 0.0 | 0.00 | 0.24 | 0.04 | 95 | 1006.1 |
| 20260509102335 | 48 | 147 | 0.0 | 0.0 | 0.00 | 0.24 | 0.04 | 95 | 1006.2 |
| 20260509101850 | 48 | 147 | 0.0 | 0.0 | 0.00 | 0.24 | 0.04 | 95 | 1006.2 |
| 20260509101502 | 48 | 147 | 0.0 | 0.0 | 0.00 | 0.05 | 0.04 | 95 | 1006.4 |
| 20260509101346 | 48 | 147 | 0.0 | 0.0 | 0.00 | 0.24 | 0.04 | 95 | 1006.3 |
| 20260509100842 | 48 | 147 | 0.0 | 0.0 | 0.00 | 0.24 | 0.04 | 95 | 1006.2 |
| 20260509100337 | 48 | 146 | 0.0 | 0.0 | 0.00 | 0.24 | 0.04 | 95 | 1006.3 |
| 20260509100039 | 48 | 147 | 0.0 | 0.0 | 0.00 | 0.05 | 0.04 | 95 | 1006.4 |
| 20260509095834 | 48 | 146 | 0.0 | 0.0 | 0.00 | 0.24 | 0.04 | 95 | 1006.3 |
| 20260509095353 | 48 | 183 | 0.0 | 0.0 | 0.00 | 0.24 | 0.04 | 95 | 1006.3 |